Pagrindinis puslapis
METAR-TAF:

METAR-TAF

Oro uostai :

Princesės Julianos tarptautinis oro uostas

Sint Martenas, Nyderlandų Antilai

platuma: 18-03N, ilguma: 063-07W, Aukštis: 4 m

Dabartinis oras

Ataskaita buvo paskelbta 52 minutes, ne 00:00 UTC
Vėjas 5 kt iš Šiaurės
Temperatūra 26°C
Drėgmė 79%
Slėgis 1017 hPa
Matomumas 10 km arba daugiau
Mažai debesys ne aukštis 2000 ft

METAR: TNCM 250000Z 01005KT 9999 FEW020 26/22 Q1017 NOSIG

Laikas: 20:52 (00:52 UTC)

Prognozė

Ataskaita buvo paskelbta 1 valandą ir 29 minutes, ne 23:23 UTC
Prognozė galioja nuo 25 metu 00 UTC su 25 metu 24 UTC
Vėjas 3 kt iš Šiaurės/Šiaurės Rytų
Matomumas: 10 km
Mažai debesys ne aukštis 1800 ft
Nuo 25 metu 1400 UTC
Vėjas 9 kt iš Rytų/Šiaurės Rytų
Matomumas: 10 km
Mažai debesys ne aukštis 2000 ft
Išsisklaidę debesys ne aukštis 3500 ft

TAF: TNCM 242323Z 2500/2524 02003KT P6SM FEW018 FM251400 07009KT P6SM FEW020 SCT035

Orai ataskaitas ir orų prognozės (METAR, TAF).

turimą stotys yra geltonos ir raudonos taškus žemėlapyje.

Perkelti pele per norėdami pamatyti stoties vardą.

Tada spustelėkite, norėdami matyti oro stebėjimo ir prognozės.

Norėdami pakeisti žemėlapį: spustelėkite ant žalios mygtukų su juodo kryžiaus žemyn,; žalią mygtuką su brūkšneliu, jei norite nutolinti; arba žalių rodyklių gretimoms žemėlapius.


METAR-TAF: